sensor_id;sensor_type;location;lat;lon;timestamp;temperature;humidity
46336;DHT22;31365;48.858;8.530;2023-06-14T00:01:08;15.90;83.40
46336;DHT22;31365;48.858;8.530;2023-06-14T00:03:36;15.90;83.90
46336;DHT22;31365;48.858;8.530;2023-06-14T00:06:06;15.80;83.90
46336;DHT22;31365;48.858;8.530;2023-06-14T00:08:35;15.70;84.10
46336;DHT22;31365;48.858;8.530;2023-06-14T00:11:03;15.70;84.10
46336;DHT22;31365;48.858;8.530;2023-06-14T00:13:33;15.60;84.70
46336;DHT22;31365;48.858;8.530;2023-06-14T00:16:05;15.60;84.80
46336;DHT22;31365;48.858;8.530;2023-06-14T00:18:35;15.60;85.30
46336;DHT22;31365;48.858;8.530;2023-06-14T00:21:05;15.50;86.10
46336;DHT22;31365;48.858;8.530;2023-06-14T00:23:34;15.40;86.40
46336;DHT22;31365;48.858;8.530;2023-06-14T00:26:02;15.30;87.00
46336;DHT22;31365;48.858;8.530;2023-06-14T00:28:32;15.30;87.10
46336;DHT22;31365;48.858;8.530;2023-06-14T00:31:01;15.20;87.60
46336;DHT22;31365;48.858;8.530;2023-06-14T00:33:30;15.20;88.20
46336;DHT22;31365;48.858;8.530;2023-06-14T00:35:59;15.20;87.90
46336;DHT22;31365;48.858;8.530;2023-06-14T00:38:27;15.20;88.20
46336;DHT22;31365;48.858;8.530;2023-06-14T00:40:59;15.10;88.10
46336;DHT22;31365;48.858;8.530;2023-06-14T00:43:27;15.10;88.20
46336;DHT22;31365;48.858;8.530;2023-06-14T00:45:56;15.10;88.20
46336;DHT22;31365;48.858;8.530;2023-06-14T00:48:25;15.00;87.80
46336;DHT22;31365;48.858;8.530;2023-06-14T00:50:58;15.00;88.00
46336;DHT22;31365;48.858;8.530;2023-06-14T00:53:33;15.00;88.30
46336;DHT22;31365;48.858;8.530;2023-06-14T00:56:03;15.00;88.40
46336;DHT22;31365;48.858;8.530;2023-06-14T00:58:32;15.00;88.40
46336;DHT22;31365;48.858;8.530;2023-06-14T01:01:01;14.90;88.60
46336;DHT22;31365;48.858;8.530;2023-06-14T01:03:33;14.90;88.50
46336;DHT22;31365;48.858;8.530;2023-06-14T01:06:11;14.90;88.80
46336;DHT22;31365;48.858;8.530;2023-06-14T01:09:02;14.80;88.70
46336;DHT22;31365;48.858;8.530;2023-06-14T01:11:44;14.70;89.20
46336;DHT22;31365;48.858;8.530;2023-06-14T01:14:20;14.70;89.30
46336;DHT22;31365;48.858;8.530;2023-06-14T01:16:50;14.70;89.00
46336;DHT22;31365;48.858;8.530;2023-06-14T01:19:21;14.70;89.10
46336;DHT22;31365;48.858;8.530;2023-06-14T01:21:54;14.70;89.10
46336;DHT22;31365;48.858;8.530;2023-06-14T01:24:26;14.70;89.90
46336;DHT22;31365;48.858;8.530;2023-06-14T01:26:59;14.70;89.50
46336;DHT22;31365;48.858;8.530;2023-06-14T01:29:31;14.60;89.50
46336;DHT22;31365;48.858;8.530;2023-06-14T01:32:02;14.60;89.40
46336;DHT22;31365;48.858;8.530;2023-06-14T01:34:32;14.60;89.20
46336;DHT22;31365;48.858;8.530;2023-06-14T01:37:02;14.60;88.70
46336;DHT22;31365;48.858;8.530;2023-06-14T01:39:34;14.50;89.40
46336;DHT22;31365;48.858;8.530;2023-06-14T01:42:04;14.40;89.60
46336;DHT22;31365;48.858;8.530;2023-06-14T01:44:34;14.40;90.10
46336;DHT22;31365;48.858;8.530;2023-06-14T01:47:03;14.40;90.00
46336;DHT22;31365;48.858;8.530;2023-06-14T01:49:33;14.30;90.00
46336;DHT22;31365;48.858;8.530;2023-06-14T01:52:03;14.30;89.80
46336;DHT22;31365;48.858;8.530;2023-06-14T01:54:34;14.30;90.00
46336;DHT22;31365;48.858;8.530;2023-06-14T01:57:05;14.20;90.00
46336;DHT22;31365;48.858;8.530;2023-06-14T01:59:34;14.20;90.10
46336;DHT22;31365;48.858;8.530;2023-06-14T02:02:03;14.20;90.40
46336;DHT22;31365;48.858;8.530;2023-06-14T02:04:32;14.10;90.50
46336;DHT22;31365;48.858;8.530;2023-06-14T02:07:01;14.10;90.50
46336;DHT22;31365;48.858;8.530;2023-06-14T02:09:30;14.10;90.60
46336;DHT22;31365;48.858;8.530;2023-06-14T02:12:01;14.10;90.90
46336;DHT22;31365;48.858;8.530;2023-06-14T02:14:30;14.00;90.90
46336;DHT22;31365;48.858;8.530;2023-06-14T02:16:59;14.10;90.70
46336;DHT22;31365;48.858;8.530;2023-06-14T02:19:29;14.10;90.50
46336;DHT22;31365;48.858;8.530;2023-06-14T02:21:58;14.00;90.50
46336;DHT22;31365;48.858;8.530;2023-06-14T02:24:27;14.10;90.50
46336;DHT22;31365;48.858;8.530;2023-06-14T02:26:55;14.00;90.50
46336;DHT22;31365;48.858;8.530;2023-06-14T02:29:26;14.00;90.70
46336;DHT22;31365;48.858;8.530;2023-06-14T02:31:55;14.00;90.60
46336;DHT22;31365;48.858;8.530;2023-06-14T02:34:23;14.00;90.50
46336;DHT22;31365;48.858;8.530;2023-06-14T02:36:52;14.00;90.40
46336;DHT22;31365;48.858;8.530;2023-06-14T02:39:20;14.00;90.40
46336;DHT22;31365;48.858;8.530;2023-06-14T02:41:57;14.00;90.80
46336;DHT22;31365;48.858;8.530;2023-06-14T02:44:39;14.00;90.70
46336;DHT22;31365;48.858;8.530;2023-06-14T02:47:10;14.00;90.80
46336;DHT22;31365;48.858;8.530;2023-06-14T02:49:39;13.80;90.90
46336;DHT22;31365;48.858;8.530;2023-06-14T02:52:16;13.70;91.00
46336;DHT22;31365;48.858;8.530;2023-06-14T02:54:45;13.70;91.00
46336;DHT22;31365;48.858;8.530;2023-06-14T02:57:15;13.70;91.10
46336;DHT22;31365;48.858;8.530;2023-06-14T02:59:45;13.70;91.20
46336;DHT22;31365;48.858;8.530;2023-06-14T03:02:16;13.60;91.20
46336;DHT22;31365;48.858;8.530;2023-06-14T03:04:45;13.60;91.40
46336;DHT22;31365;48.858;8.530;2023-06-14T03:07:16;13.60;91.70
46336;DHT22;31365;48.858;8.530;2023-06-14T03:09:49;13.50;91.80
46336;DHT22;31365;48.858;8.530;2023-06-14T03:12:20;13.40;91.80
46336;DHT22;31365;48.858;8.530;2023-06-14T03:14:53;13.40;91.90
46336;DHT22;31365;48.858;8.530;2023-06-14T03:17:26;13.40;92.40
46336;DHT22;31365;48.858;8.530;2023-06-14T03:20:00;13.40;92.10
46336;DHT22;31365;48.858;8.530;2023-06-14T03:22:30;13.40;92.20
46336;DHT22;31365;48.858;8.530;2023-06-14T03:25:00;13.40;92.10
46336;DHT22;31365;48.858;8.530;2023-06-14T03:27:34;13.30;92.10
46336;DHT22;31365;48.858;8.530;2023-06-14T03:30:08;13.30;92.10
46336;DHT22;31365;48.858;8.530;2023-06-14T03:32:37;13.30;92.20
46336;DHT22;31365;48.858;8.530;2023-06-14T03:35:08;13.20;92.70
46336;DHT22;31365;48.858;8.530;2023-06-14T03:37:37;13.20;92.60
46336;DHT22;31365;48.858;8.530;2023-06-14T03:40:07;13.20;92.60
46336;DHT22;31365;48.858;8.530;2023-06-14T03:42:40;13.10;92.80
46336;DHT22;31365;48.858;8.530;2023-06-14T03:45:13;13.10;92.80
46336;DHT22;31365;48.858;8.530;2023-06-14T03:47:42;13.00;93.00
46336;DHT22;31365;48.858;8.530;2023-06-14T03:50:11;12.90;93.10
46336;DHT22;31365;48.858;8.530;2023-06-14T03:52:40;12.90;93.70
46336;DHT22;31365;48.858;8.530;2023-06-14T03:55:11;13.00;93.70
46336;DHT22;31365;48.858;8.530;2023-06-14T03:57:46;12.90;94.00
46336;DHT22;31365;48.858;8.530;2023-06-14T04:00:19;12.80;94.00
46336;DHT22;31365;48.858;8.530;2023-06-14T04:02:48;12.90;93.90
46336;DHT22;31365;48.858;8.530;2023-06-14T04:05:18;12.90;94.40
46336;DHT22;31365;48.858;8.530;2023-06-14T04:07:49;12.90;94.10
46336;DHT22;31365;48.858;8.530;2023-06-14T04:10:17;13.00;94.20
46336;DHT22;31365;48.858;8.530;2023-06-14T04:12:47;12.90;94.30
46336;DHT22;31365;48.858;8.530;2023-06-14T04:15:20;13.00;94.20
46336;DHT22;31365;48.858;8.530;2023-06-14T04:17:52;13.10;94.00
46336;DHT22;31365;48.858;8.530;2023-06-14T04:20:25;13.10;94.00
46336;DHT22;31365;48.858;8.530;2023-06-14T04:22:53;13.00;93.90
46336;DHT22;31365;48.858;8.530;2023-06-14T04:25:28;13.00;94.20
46336;DHT22;31365;48.858;8.530;2023-06-14T04:28:00;13.00;94.20
46336;DHT22;31365;48.858;8.530;2023-06-14T04:30:30;13.00;94.30
46336;DHT22;31365;48.858;8.530;2023-06-14T04:32:59;13.10;94.50
46336;DHT22;31365;48.858;8.530;2023-06-14T04:35:33;13.20;94.70
46336;DHT22;31365;48.858;8.530;2023-06-14T04:38:04;13.30;94.50
46336;DHT22;31365;48.858;8.530;2023-06-14T04:40:37;13.40;94.50
46336;DHT22;31365;48.858;8.530;2023-06-14T04:43:16;13.40;94.60
46336;DHT22;31365;48.858;8.530;2023-06-14T04:45:54;13.50;94.30
46336;DHT22;31365;48.858;8.530;2023-06-14T04:48:24;13.70;93.80
46336;DHT22;31365;48.858;8.530;2023-06-14T04:50:54;13.70;93.80
46336;DHT22;31365;48.858;8.530;2023-06-14T04:53:23;13.90;93.70
46336;DHT22;31365;48.858;8.530;2023-06-14T04:55:56;14.10;93.50
46336;DHT22;31365;48.858;8.530;2023-06-14T04:58:26;14.10;93.40
46336;DHT22;31365;48.858;8.530;2023-06-14T05:00:56;14.20;93.30
46336;DHT22;31365;48.858;8.530;2023-06-14T05:03:26;14.30;93.40
46336;DHT22;31365;48.858;8.530;2023-06-14T05:05:57;14.40;93.40
46336;DHT22;31365;48.858;8.530;2023-06-14T05:08:27;14.50;94.10
46336;DHT22;31365;48.858;8.530;2023-06-14T05:10:58;14.60;93.50
46336;DHT22;31365;48.858;8.530;2023-06-14T05:13:27;14.70;93.20
46336;DHT22;31365;48.858;8.530;2023-06-14T05:15:57;14.80;93.20
46336;DHT22;31365;48.858;8.530;2023-06-14T05:18:26;14.90;93.00
46336;DHT22;31365;48.858;8.530;2023-06-14T05:20:55;15.00;93.50
46336;DHT22;31365;48.858;8.530;2023-06-14T05:23:24;15.20;93.60
46336;DHT22;31365;48.858;8.530;2023-06-14T05:25:53;15.20;93.60
46336;DHT22;31365;48.858;8.530;2023-06-14T05:28:21;15.30;93.50
46336;DHT22;31365;48.858;8.530;2023-06-14T05:30:51;15.40;93.30
46336;DHT22;31365;48.858;8.530;2023-06-14T05:33:22;15.40;93.20
46336;DHT22;31365;48.858;8.530;2023-06-14T05:35:50;15.40;93.60
46336;DHT22;31365;48.858;8.530;2023-06-14T05:38:19;15.50;93.30
46336;DHT22;31365;48.858;8.530;2023-06-14T05:40:48;15.60;93.60
46336;DHT22;31365;48.858;8.530;2023-06-14T05:43:17;15.70;93.70
46336;DHT22;31365;48.858;8.530;2023-06-14T05:45:45;15.80;92.40
46336;DHT22;31365;48.858;8.530;2023-06-14T05:48:14;16.00;92.40
46336;DHT22;31365;48.858;8.530;2023-06-14T05:50:45;16.20;91.90
46336;DHT22;31365;48.858;8.530;2023-06-14T05:53:14;16.30;93.00
46336;DHT22;31365;48.858;8.530;2023-06-14T05:55:43;16.50;93.70
46336;DHT22;31365;48.858;8.530;2023-06-14T05:58:12;16.60;93.00
46336;DHT22;31365;48.858;8.530;2023-06-14T06:00:41;16.60;92.60
46336;DHT22;31365;48.858;8.530;2023-06-14T06:03:10;16.70;92.50
46336;DHT22;31365;48.858;8.530;2023-06-14T06:05:40;16.80;92.00
46336;DHT22;31365;48.858;8.530;2023-06-14T06:08:13;16.80;91.80
46336;DHT22;31365;48.858;8.530;2023-06-14T06:10:43;16.90;92.10
46336;DHT22;31365;48.858;8.530;2023-06-14T06:13:13;17.00;91.70
46336;DHT22;31365;48.858;8.530;2023-06-14T06:15:42;17.00;91.80
46336;DHT22;31365;48.858;8.530;2023-06-14T06:18:12;17.10;91.80
46336;DHT22;31365;48.858;8.530;2023-06-14T06:20:40;17.20;91.60
46336;DHT22;31365;48.858;8.530;2023-06-14T06:23:10;17.30;91.70
46336;DHT22;31365;48.858;8.530;2023-06-14T06:25:41;17.40;90.90
46336;DHT22;31365;48.858;8.530;2023-06-14T06:28:10;17.50;90.70
46336;DHT22;31365;48.858;8.530;2023-06-14T06:30:39;17.60;90.80
46336;DHT22;31365;48.858;8.530;2023-06-14T06:33:07;17.70;91.00
46336;DHT22;31365;48.858;8.530;2023-06-14T06:35:36;17.90;90.90
46336;DHT22;31365;48.858;8.530;2023-06-14T06:38:05;18.00;91.30
46336;DHT22;31365;48.858;8.530;2023-06-14T06:40:34;18.10;90.90
46336;DHT22;31365;48.858;8.530;2023-06-14T06:43:04;18.20;91.20
46336;DHT22;31365;48.858;8.530;2023-06-14T06:45:40;18.20;90.30
46336;DHT22;31365;48.858;8.530;2023-06-14T06:48:09;18.20;90.30
46336;DHT22;31365;48.858;8.530;2023-06-14T06:50:39;18.30;90.30
46336;DHT22;31365;48.858;8.530;2023-06-14T06:53:07;18.30;90.80
46336;DHT22;31365;48.858;8.530;2023-06-14T06:55:36;18.50;90.90
46336;DHT22;31365;48.858;8.530;2023-06-14T06:58:07;18.60;90.50
46336;DHT22;31365;48.858;8.530;2023-06-14T07:00:36;18.70;90.80
46336;DHT22;31365;48.858;8.530;2023-06-14T07:03:05;18.70;90.80
46336;DHT22;31365;48.858;8.530;2023-06-14T07:05:34;18.70;90.30
46336;DHT22;31365;48.858;8.530;2023-06-14T07:08:03;18.80;90.10
46336;DHT22;31365;48.858;8.530;2023-06-14T07:10:31;18.80;90.00
46336;DHT22;31365;48.858;8.530;2023-06-14T07:13:00;18.90;90.20
46336;DHT22;31365;48.858;8.530;2023-06-14T07:15:30;18.90;90.00
46336;DHT22;31365;48.858;8.530;2023-06-14T07:17:59;18.90;90.00
46336;DHT22;31365;48.858;8.530;2023-06-14T07:20:28;19.00;90.20
46336;DHT22;31365;48.858;8.530;2023-06-14T07:22:58;19.00;90.20
46336;DHT22;31365;48.858;8.530;2023-06-14T07:25:27;19.10;90.20
46336;DHT22;31365;48.858;8.530;2023-06-14T07:27:55;19.10;89.20
46336;DHT22;31365;48.858;8.530;2023-06-14T07:30:24;19.20;89.90
46336;DHT22;31365;48.858;8.530;2023-06-14T07:32:55;19.30;90.00
46336;DHT22;31365;48.858;8.530;2023-06-14T07:35:25;19.30;90.10
46336;DHT22;31365;48.858;8.530;2023-06-14T07:37:54;19.40;89.90
46336;DHT22;31365;48.858;8.530;2023-06-14T07:40:22;19.50;89.80
46336;DHT22;31365;48.858;8.530;2023-06-14T07:42:52;19.50;89.80
46336;DHT22;31365;48.858;8.530;2023-06-14T07:45:22;19.50;89.50
46336;DHT22;31365;48.858;8.530;2023-06-14T07:47:50;19.50;90.00
46336;DHT22;31365;48.858;8.530;2023-06-14T07:50:21;19.60;90.10
46336;DHT22;31365;48.858;8.530;2023-06-14T07:52:51;19.60;88.90
46336;DHT22;31365;48.858;8.530;2023-06-14T07:55:20;19.60;89.70
46336;DHT22;31365;48.858;8.530;2023-06-14T07:57:48;19.80;89.70
46336;DHT22;31365;48.858;8.530;2023-06-14T08:00:18;20.00;89.60
46336;DHT22;31365;48.858;8.530;2023-06-14T08:02:48;20.00;89.90
46336;DHT22;31365;48.858;8.530;2023-06-14T08:05:26;20.10;89.30
46336;DHT22;31365;48.858;8.530;2023-06-14T08:07:55;20.10;88.70
46336;DHT22;31365;48.858;8.530;2023-06-14T08:10:24;20.10;88.90
46336;DHT22;31365;48.858;8.530;2023-06-14T08:12:53;20.20;89.30
46336;DHT22;31365;48.858;8.530;2023-06-14T08:15:21;20.20;88.50
46336;DHT22;31365;48.858;8.530;2023-06-14T08:17:50;20.30;89.30
46336;DHT22;31365;48.858;8.530;2023-06-14T08:20:19;20.40;88.00
46336;DHT22;31365;48.858;8.530;2023-06-14T08:22:49;20.50;86.40
46336;DHT22;31365;48.858;8.530;2023-06-14T08:25:22;20.60;87.10
46336;DHT22;31365;48.858;8.530;2023-06-14T08:27:51;20.70;86.00
46336;DHT22;31365;48.858;8.530;2023-06-14T08:30:20;20.80;85.50
46336;DHT22;31365;48.858;8.530;2023-06-14T08:32:48;20.90;84.50
46336;DHT22;31365;48.858;8.530;2023-06-14T08:35:36;20.90;82.70
46336;DHT22;31365;48.858;8.530;2023-06-14T08:38:10;21.00;83.00
46336;DHT22;31365;48.858;8.530;2023-06-14T08:40:40;21.10;82.10
46336;DHT22;31365;48.858;8.530;2023-06-14T08:43:10;21.10;83.30
46336;DHT22;31365;48.858;8.530;2023-06-14T08:45:39;21.20;83.00
46336;DHT22;31365;48.858;8.530;2023-06-14T08:48:08;21.20;82.80
46336;DHT22;31365;48.858;8.530;2023-06-14T08:50:40;21.20;83.60
46336;DHT22;31365;48.858;8.530;2023-06-14T08:53:12;21.40;83.80
46336;DHT22;31365;48.858;8.530;2023-06-14T08:55:48;21.40;83.80
46336;DHT22;31365;48.858;8.530;2023-06-14T08:58:17;21.50;83.50
46336;DHT22;31365;48.858;8.530;2023-06-14T09:00:46;21.70;82.10
46336;DHT22;31365;48.858;8.530;2023-06-14T09:03:16;21.80;81.30
46336;DHT22;31365;48.858;8.530;2023-06-14T09:05:48;21.80;80.40
46336;DHT22;31365;48.858;8.530;2023-06-14T09:08:20;21.90;81.30
46336;DHT22;31365;48.858;8.530;2023-06-14T09:10:49;21.90;81.70
46336;DHT22;31365;48.858;8.530;2023-06-14T09:13:18;21.80;81.30
46336;DHT22;31365;48.858;8.530;2023-06-14T09:15:47;21.90;81.80
46336;DHT22;31365;48.858;8.530;2023-06-14T09:18:16;21.80;80.00
46336;DHT22;31365;48.858;8.530;2023-06-14T09:20:47;21.80;80.00
46336;DHT22;31365;48.858;8.530;2023-06-14T09:23:21;21.80;80.70
46336;DHT22;31365;48.858;8.530;2023-06-14T09:25:50;21.80;80.40
46336;DHT22;31365;48.858;8.530;2023-06-14T09:28:19;21.80;81.00
46336;DHT22;31365;48.858;8.530;2023-06-14T09:30:50;21.90;80.70
46336;DHT22;31365;48.858;8.530;2023-06-14T09:33:19;22.00;80.10
46336;DHT22;31365;48.858;8.530;2023-06-14T09:35:51;22.20;79.80
46336;DHT22;31365;48.858;8.530;2023-06-14T09:38:21;22.20;79.00
46336;DHT22;31365;48.858;8.530;2023-06-14T09:40:50;22.30;78.60
46336;DHT22;31365;48.858;8.530;2023-06-14T09:43:19;22.40;78.10
46336;DHT22;31365;48.858;8.530;2023-06-14T09:45:50;22.40;77.20
46336;DHT22;31365;48.858;8.530;2023-06-14T09:48:20;22.50;78.20
46336;DHT22;31365;48.858;8.530;2023-06-14T09:50:50;22.60;76.30
46336;DHT22;31365;48.858;8.530;2023-06-14T09:53:22;22.70;76.60
46336;DHT22;31365;48.858;8.530;2023-06-14T09:55:55;22.60;76.10
46336;DHT22;31365;48.858;8.530;2023-06-14T09:58:28;22.70;74.50
46336;DHT22;31365;48.858;8.530;2023-06-14T10:00:59;22.70;76.00
46336;DHT22;31365;48.858;8.530;2023-06-14T10:03:29;22.80;75.30
46336;DHT22;31365;48.858;8.530;2023-06-14T10:06:19;22.80;75.70
46336;DHT22;31365;48.858;8.530;2023-06-14T10:08:56;23.00;75.20
46336;DHT22;31365;48.858;8.530;2023-06-14T10:11:27;23.20;75.00
46336;DHT22;31365;48.858;8.530;2023-06-14T10:13:57;23.30;74.10
46336;DHT22;31365;48.858;8.530;2023-06-14T10:16:30;23.30;74.00
46336;DHT22;31365;48.858;8.530;2023-06-14T10:19:10;23.50;73.80
46336;DHT22;31365;48.858;8.530;2023-06-14T10:21:49;23.60;74.00
46336;DHT22;31365;48.858;8.530;2023-06-14T10:24:30;23.60;72.70
46336;DHT22;31365;48.858;8.530;2023-06-14T10:27:07;23.60;73.20
46336;DHT22;31365;48.858;8.530;2023-06-14T10:30:02;23.50;72.70
46336;DHT22;31365;48.858;8.530;2023-06-14T10:32:32;23.30;73.00
46336;DHT22;31365;48.858;8.530;2023-06-14T10:35:04;23.30;74.00
46336;DHT22;31365;48.858;8.530;2023-06-14T10:37:34;23.30;74.50
46336;DHT22;31365;48.858;8.530;2023-06-14T10:40:07;23.30;75.30
46336;DHT22;31365;48.858;8.530;2023-06-14T10:42:37;23.40;75.10
46336;DHT22;31365;48.858;8.530;2023-06-14T10:45:07;23.40;74.30
46336;DHT22;31365;48.858;8.530;2023-06-14T10:47:41;23.50;73.20
46336;DHT22;31365;48.858;8.530;2023-06-14T10:50:11;23.40;73.90
46336;DHT22;31365;48.858;8.530;2023-06-14T10:52:43;23.50;72.70
46336;DHT22;31365;48.858;8.530;2023-06-14T10:55:15;23.60;72.20
46336;DHT22;31365;48.858;8.530;2023-06-14T10:57:47;23.70;72.80
46336;DHT22;31365;48.858;8.530;2023-06-14T11:00:20;23.70;73.10
46336;DHT22;31365;48.858;8.530;2023-06-14T11:03:27;23.70;72.50
46336;DHT22;31365;48.858;8.530;2023-06-14T11:06:14;23.70;71.90
46336;DHT22;31365;48.858;8.530;2023-06-14T11:09:11;23.70;71.10
46336;DHT22;31365;48.858;8.530;2023-06-14T11:12:09;23.80;71.00
46336;DHT22;31365;48.858;8.530;2023-06-14T11:14:39;24.10;70.20
46336;DHT22;31365;48.858;8.530;2023-06-14T11:17:08;24.30;68.90
46336;DHT22;31365;48.858;8.530;2023-06-14T11:19:42;24.40;68.20
46336;DHT22;31365;48.858;8.530;2023-06-14T11:22:12;24.60;67.30
46336;DHT22;31365;48.858;8.530;2023-06-14T11:24:43;24.90;66.90
46336;DHT22;31365;48.858;8.530;2023-06-14T11:27:14;25.60;66.40
46336;DHT22;31365;48.858;8.530;2023-06-14T11:29:48;26.10;62.70
46336;DHT22;31365;48.858;8.530;2023-06-14T11:32:17;26.90;63.20
46336;DHT22;31365;48.858;8.530;2023-06-14T11:34:46;27.60;60.30
46336;DHT22;31365;48.858;8.530;2023-06-14T11:37:19;28.30;58.20
46336;DHT22;31365;48.858;8.530;2023-06-14T11:39:48;28.70;57.90
46336;DHT22;31365;48.858;8.530;2023-06-14T11:42:19;29.00;59.00
46336;DHT22;31365;48.858;8.530;2023-06-14T11:44:48;28.90;59.20
46336;DHT22;31365;48.858;8.530;2023-06-14T11:47:23;28.70;58.40
46336;DHT22;31365;48.858;8.530;2023-06-14T11:49:52;29.00;58.40
46336;DHT22;31365;48.858;8.530;2023-06-14T11:52:21;29.60;57.80
46336;DHT22;31365;48.858;8.530;2023-06-14T11:54:50;29.80;57.90
46336;DHT22;31365;48.858;8.530;2023-06-14T11:57:23;30.30;56.80
46336;DHT22;31365;48.858;8.530;2023-06-14T11:59:52;30.70;56.80
46336;DHT22;31365;48.858;8.530;2023-06-14T12:02:24;30.70;56.10
46336;DHT22;31365;48.858;8.530;2023-06-14T12:05:04;31.00;55.60
46336;DHT22;31365;48.858;8.530;2023-06-14T12:07:34;31.70;55.20
46336;DHT22;31365;48.858;8.530;2023-06-14T12:10:05;32.20;53.90
46336;DHT22;31365;48.858;8.530;2023-06-14T12:12:39;32.90;54.10
46336;DHT22;31365;48.858;8.530;2023-06-14T12:15:10;33.00;53.70
46336;DHT22;31365;48.858;8.530;2023-06-14T12:17:41;33.20;52.60
46336;DHT22;31365;48.858;8.530;2023-06-14T12:20:12;33.60;53.50
46336;DHT22;31365;48.858;8.530;2023-06-14T12:22:52;33.70;51.40
46336;DHT22;31365;48.858;8.530;2023-06-14T12:25:25;34.00;51.40
46336;DHT22;31365;48.858;8.530;2023-06-14T12:27:58;34.70;51.10
46336;DHT22;31365;48.858;8.530;2023-06-14T12:30:26;34.90;51.50
46336;DHT22;31365;48.858;8.530;2023-06-14T12:32:55;34.50;51.80
46336;DHT22;31365;48.858;8.530;2023-06-14T12:35:25;34.00;51.70
46336;DHT22;31365;48.858;8.530;2023-06-14T12:37:53;33.70;51.70
46336;DHT22;31365;48.858;8.530;2023-06-14T12:40:23;33.50;52.20
46336;DHT22;31365;48.858;8.530;2023-06-14T12:42:52;34.20;52.20
46336;DHT22;31365;48.858;8.530;2023-06-14T12:45:22;35.00;51.30
46336;DHT22;31365;48.858;8.530;2023-06-14T12:47:51;36.10;50.30
46336;DHT22;31365;48.858;8.530;2023-06-14T12:50:20;36.50;49.60
46336;DHT22;31365;48.858;8.530;2023-06-14T12:52:53;36.20;49.30
46336;DHT22;31365;48.858;8.530;2023-06-14T12:55:21;36.30;49.00
46336;DHT22;31365;48.858;8.530;2023-06-14T12:57:50;36.90;49.10
46336;DHT22;31365;48.858;8.530;2023-06-14T14:26:47;40.30;42.90
46336;DHT22;31365;48.858;8.530;2023-06-14T14:29:16;40.60;42.70
46336;DHT22;31365;48.858;8.530;2023-06-14T14:31:45;40.60;43.10
46336;DHT22;31365;48.858;8.530;2023-06-14T14:34:15;40.40;42.90
46336;DHT22;31365;48.858;8.530;2023-06-14T14:36:47;40.40;42.80
46336;DHT22;31365;48.858;8.530;2023-06-14T14:39:15;40.30;42.50
46336;DHT22;31365;48.858;8.530;2023-06-14T14:41:44;40.20;42.90
46336;DHT22;31365;48.858;8.530;2023-06-14T14:44:15;40.40;42.30
46336;DHT22;31365;48.858;8.530;2023-06-14T14:46:45;40.30;43.20
46336;DHT22;31365;48.858;8.530;2023-06-14T14:49:14;40.00;42.90
46336;DHT22;31365;48.858;8.530;2023-06-14T14:51:43;40.20;42.00
46336;DHT22;31365;48.858;8.530;2023-06-14T14:54:11;40.40;41.90
46336;DHT22;31365;48.858;8.530;2023-06-14T14:56:40;40.90;42.00
46336;DHT22;31365;48.858;8.530;2023-06-14T14:59:09;41.10;41.50
46336;DHT22;31365;48.858;8.530;2023-06-14T15:01:40;41.30;41.20
46336;DHT22;31365;48.858;8.530;2023-06-14T15:04:08;41.10;41.70
46336;DHT22;31365;48.858;8.530;2023-06-14T15:06:37;41.00;41.20
46336;DHT22;31365;48.858;8.530;2023-06-14T15:09:07;40.90;41.30
46336;DHT22;31365;48.858;8.530;2023-06-14T15:11:35;40.90;41.50
46336;DHT22;31365;48.858;8.530;2023-06-14T15:14:03;40.50;42.20
46336;DHT22;31365;48.858;8.530;2023-06-14T15:16:32;39.60;42.80
46336;DHT22;31365;48.858;8.530;2023-06-14T15:19:02;38.10;43.10
46336;DHT22;31365;48.858;8.530;2023-06-14T15:21:31;36.60;44.20
46336;DHT22;31365;48.858;8.530;2023-06-14T15:24:00;35.00;45.60
46336;DHT22;31365;48.858;8.530;2023-06-14T15:26:28;33.70;47.20
46336;DHT22;31365;48.858;8.530;2023-06-14T15:28:56;33.20;47.10
46336;DHT22;31365;48.858;8.530;2023-06-14T15:31:25;32.70;48.00
46336;DHT22;31365;48.858;8.530;2023-06-14T15:33:55;32.30;48.00
46336;DHT22;31365;48.858;8.530;2023-06-14T15:36:25;31.90;49.00
46336;DHT22;31365;48.858;8.530;2023-06-14T15:38:54;31.30;49.60
46336;DHT22;31365;48.858;8.530;2023-06-14T15:41:22;31.00;49.90
46336;DHT22;31365;48.858;8.530;2023-06-14T15:43:51;31.00;49.70
46336;DHT22;31365;48.858;8.530;2023-06-14T15:46:21;30.80;50.10
46336;DHT22;31365;48.858;8.530;2023-06-14T15:48:49;30.80;50.30
46336;DHT22;31365;48.858;8.530;2023-06-14T15:51:18;31.00;50.40
46336;DHT22;31365;48.858;8.530;2023-06-14T15:53:48;31.20;49.60
46336;DHT22;31365;48.858;8.530;2023-06-14T15:56:17;31.30;50.50
46336;DHT22;31365;48.858;8.530;2023-06-14T15:58:46;31.70;50.20
46336;DHT22;31365;48.858;8.530;2023-06-14T16:01:18;32.00;50.30
46336;DHT22;31365;48.858;8.530;2023-06-14T16:03:47;32.40;49.50
46336;DHT22;31365;48.858;8.530;2023-06-14T16:06:16;33.00;49.10
46336;DHT22;31365;48.858;8.530;2023-06-14T16:08:45;33.60;48.80
46336;DHT22;31365;48.858;8.530;2023-06-14T16:11:15;34.10;48.20
46336;DHT22;31365;48.858;8.530;2023-06-14T16:13:43;34.60;47.60
46336;DHT22;31365;48.858;8.530;2023-06-14T16:16:13;35.10;47.30
46336;DHT22;31365;48.858;8.530;2023-06-14T16:18:42;35.00;47.20
46336;DHT22;31365;48.858;8.530;2023-06-14T16:21:11;34.30;48.10
46336;DHT22;31365;48.858;8.530;2023-06-14T16:23:39;33.90;48.40
46336;DHT22;31365;48.858;8.530;2023-06-14T16:26:10;33.90;48.60
46336;DHT22;31365;48.858;8.530;2023-06-14T16:28:41;33.90;48.90
46336;DHT22;31365;48.858;8.530;2023-06-14T16:31:12;33.00;49.30
46336;DHT22;31365;48.858;8.530;2023-06-14T16:33:43;32.00;49.60
46336;DHT22;31365;48.858;8.530;2023-06-14T16:36:11;30.70;51.40
46336;DHT22;31365;48.858;8.530;2023-06-14T16:38:40;29.80;52.60
46336;DHT22;31365;48.858;8.530;2023-06-14T16:41:09;29.10;53.60
46336;DHT22;31365;48.858;8.530;2023-06-14T16:43:42;28.40;54.60
46336;DHT22;31365;48.858;8.530;2023-06-14T16:46:11;28.00;54.90
46336;DHT22;31365;48.858;8.530;2023-06-14T16:48:43;27.70;55.70
46336;DHT22;31365;48.858;8.530;2023-06-14T16:51:11;27.40;55.70
46336;DHT22;31365;48.858;8.530;2023-06-14T16:53:39;27.30;56.10
46336;DHT22;31365;48.858;8.530;2023-06-14T16:56:08;27.20;56.10
46336;DHT22;31365;48.858;8.530;2023-06-14T16:58:36;27.10;56.10
46336;DHT22;31365;48.858;8.530;2023-06-14T17:01:06;26.90;56.50
46336;DHT22;31365;48.858;8.530;2023-06-14T17:03:35;26.90;56.30
46336;DHT22;31365;48.858;8.530;2023-06-14T17:06:04;26.90;56.80
46336;DHT22;31365;48.858;8.530;2023-06-14T17:08:33;26.60;57.10
46336;DHT22;31365;48.858;8.530;2023-06-14T17:11:03;26.50;57.40
46336;DHT22;31365;48.858;8.530;2023-06-14T17:13:32;26.30;58.40
46336;DHT22;31365;48.858;8.530;2023-06-14T17:16:01;26.30;58.40
46336;DHT22;31365;48.858;8.530;2023-06-14T17:18:34;26.10;58.70